Time;durP1;ratioP1;P1;durP2;ratioP2;P2;SDS_P1;SDS_P2;PMS_P1;PMS_P2;Temp;Humidity;BMP_temperature;BMP_pressure;BME280_temperature;BME280_humidity;BME280_pressure;Samples;Min_cycle;Max_cycle;Signal;HPM_P1;HPM_P2
2021/06/14 00:01:00;;;;;;;7.95;4.43;;;;;;;13.82;66.82;102318.38;10630303;27;20069;-58
2021/06/14 00:06:04;;;;;;;8.05;4.45;;;;;;;13.77;67.72;102308.97;10629848;27;20039;-58
2021/06/14 00:11:06;;;;;;;7.50;4.93;;;;;;;13.68;66.89;102311.09;10629871;27;20047;-59
2021/06/14 00:16:09;;;;;;;7.18;3.85;;;;;;;13.60;67.75;102309.75;10630165;27;20047;-59
2021/06/14 00:21:13;;;;;;;7.28;3.83;;;;;;;13.57;67.78;102302.88;10629487;27;20047;-58
2021/06/14 00:26:16;;;;;;;6.00;4.35;;;;;;;13.51;68.12;102301.38;10629074;27;20092;-58
2021/06/14 00:31:19;;;;;;;8.20;4.22;;;;;;;13.53;68.11;102299.53;10629554;27;20050;-58
2021/06/14 00:36:21;;;;;;;6.47;4.68;;;;;;;13.30;68.87;102295.28;10610178;27;20043;-59
2021/06/14 00:41:23;;;;;;;9.82;4.70;;;;;;;13.45;68.39;102296.41;10629014;27;20479;-59
2021/06/14 00:46:26;;;;;;;7.68;5.22;;;;;;;13.28;68.46;102296.25;10628589;27;20043;-58
2021/06/14 00:51:28;;;;;;;7.82;4.68;;;;;;;13.25;69.43;102288.53;10628094;27;20424;-58
2021/06/14 00:56:31;;;;;;;5.38;4.40;;;;;;;13.13;69.43;102284.66;10609628;27;20070;-58
2021/06/14 01:01:33;;;;;;;5.72;4.55;;;;;;;12.97;70.53;102274.81;10628418;27;20043;-59
2021/06/14 01:06:35;;;;;;;7.88;4.15;;;;;;;13.03;70.26;102271.09;10627391;27;20035;-58
2021/06/14 01:12:03;;;;;;;7.45;4.28;;;;;;;13.05;70.28;102271.00;10627269;27;20038;-58
2021/06/14 01:17:32;;;;;;;8.27;4.90;;;;;;;12.94;70.09;102267.06;10627141;27;20104;-57
2021/06/14 01:22:52;;;;;;;8.38;4.63;;;;;;;13.02;69.55;102258.84;10609562;27;20039;-58
2021/06/14 01:27:57;;;;;;;10.23;4.28;;;;;;;12.84;70.18;102257.88;10626604;27;20043;-59
2021/06/14 01:33:01;;;;;;;9.77;4.45;;;;;;;12.85;69.11;102238.56;10608168;27;20107;-57
2021/06/14 01:38:04;;;;;;;11.70;5.22;;;;;;;12.69;70.39;102233.09;10608863;27;20043;-57
2021/06/14 01:43:09;;;;;;;8.63;4.80;;;;;;;12.70;70.82;102232.19;10625946;27;20043;-58
2021/06/14 01:48:12;;;;;;;9.52;5.40;;;;;;;12.67;70.07;102223.59;10625783;27;20501;-58
2021/06/14 01:53:15;;;;;;;7.40;5.28;;;;;;;12.58;71.39;102223.06;10607854;27;20525;-58
2021/06/14 01:58:18;;;;;;;6.70;4.68;;;;;;;12.67;70.51;102219.19;10607455;27;20034;-58
2021/06/14 02:03:20;;;;;;;9.85;4.88;;;;;;;12.48;71.00;102220.91;10606984;27;20050;-58
2021/06/14 02:08:23;;;;;;;7.60;4.50;;;;;;;12.55;71.06;102210.06;10625235;27;20049;-57
2021/06/14 02:13:26;;;;;;;8.32;4.82;;;;;;;12.67;70.99;102198.16;10624592;27;20061;-57
2021/06/14 02:18:29;;;;;;;9.80;5.18;;;;;;;12.60;71.23;102192.31;10624399;27;20054;-58
2021/06/14 02:23:31;;;;;;;6.97;5.53;;;;;;;12.59;71.16;102185.38;10606358;27;20047;-58
2021/06/14 02:28:34;;;;;;;6.22;5.15;;;;;;;12.54;71.65;102179.47;10606568;27;20061;-57
2021/06/14 02:33:36;;;;;;;10.93;6.05;;;;;;;12.62;69.53;102173.88;10624624;27;20054;-58
2021/06/14 02:38:40;;;;;;;11.73;4.57;;;;;;;12.58;69.26;102167.06;10606218;28;20387;-58
2021/06/14 02:43:44;;;;;;;9.43;5.32;;;;;;;12.81;68.02;102163.41;10606196;27;20043;-57
2021/06/14 02:48:48;;;;;;;5.78;4.32;;;;;;;12.78;69.44;102163.53;10606571;28;20046;-58
2021/06/14 02:54:04;;;;;;;9.75;5.20;;;;;;;12.69;69.23;102164.78;10624122;28;20039;-58
2021/06/14 02:59:11;;;;;;;6.72;4.40;;;;;;;12.82;68.52;102168.56;10608348;28;20046;-57
2021/06/14 03:04:15;;;;;;;8.60;5.40;;;;;;;12.87;68.52;102171.00;10623991;27;20047;-59
2021/06/14 03:09:18;;;;;;;8.40;4.70;;;;;;;12.83;66.61;102169.44;10624199;28;20061;-59
2021/06/14 03:14:21;;;;;;;10.13;5.82;;;;;;;12.74;68.13;102168.09;10610237;27;20039;-58
2021/06/14 03:19:25;;;;;;;11.60;5.95;;;;;;;12.84;67.62;102173.75;10613810;27;20390;-59
2021/06/14 03:24:27;;;;;;;8.77;5.05;;;;;;;12.86;68.27;102166.69;10613396;27;20039;-58
2021/06/14 03:29:30;;;;;;;9.35;4.78;;;;;;;12.79;67.98;102173.13;10613231;27;20035;-59
2021/06/14 03:34:33;;;;;;;8.23;5.45;;;;;;;12.91;67.72;102167.31;10630548;27;20398;-59
2021/06/14 03:39:35;;;;;;;12.63;5.78;;;;;;;12.90;67.93;102170.88;10612727;27;20054;-59
2021/06/14 03:44:37;;;;;;;10.80;4.85;;;;;;;13.33;64.91;102157.53;10613195;27;20054;-58
2021/06/14 03:49:40;;;;;;;10.40;5.43;;;;;;;13.43;65.19;102156.19;10630682;27;20039;-59
2021/06/14 03:54:42;;;;;;;8.77;4.85;;;;;;;13.05;66.99;102158.81;10630383;27;20042;-59
2021/06/14 03:59:44;;;;;;;7.18;4.25;;;;;;;13.68;62.83;102166.34;10630371;27;20043;-59
2021/06/14 04:04:50;;;;;;;9.95;5.22;;;;;;;14.04;62.74;102146.22;10630032;27;20043;-59
2021/06/14 04:09:56;;;;;;;9.68;4.82;;;;;;;14.02;64.22;102151.53;10630396;27;20035;-59
2021/06/14 04:14:58;;;;;;;7.88;4.57;;;;;;;13.88;61.66;102162.75;10629542;27;20437;-59
2021/06/14 04:20:01;;;;;;;7.15;4.10;;;;;;;14.40;62.44;102155.78;10629600;27;20050;-58
2021/06/14 04:25:04;;;;;;;10.38;4.13;;;;;;;14.16;62.65;102157.91;10628646;27;20441;-59
2021/06/14 04:30:07;;;;;;;8.30;4.45;;;;;;;14.70;60.07;102152.50;10628970;27;20056;-59
2021/06/14 04:35:11;;;;;;;7.70;4.90;;;;;;;14.26;63.91;102149.44;10628706;27;20051;-59
2021/06/14 04:40:13;;;;;;;8.48;4.38;;;;;;;14.91;58.45;102150.47;10628859;27;20039;-59
2021/06/14 04:45:16;;;;;;;6.32;4.72;;;;;;;14.83;60.54;102149.13;10628284;27;20054;-60
2021/06/14 04:50:18;;;;;;;7.78;4.68;;;;;;;14.86;61.41;102148.09;10628148;27;20035;-59
2021/06/14 04:55:20;;;;;;;9.75;4.75;;;;;;;14.96;60.88;102140.53;10610477;27;20045;-59
2021/06/14 05:00:23;;;;;;;14.23;4.80;;;;;;;15.35;57.99;102140.13;10628066;27;20039;-59
2021/06/14 05:05:26;;;;;;;6.97;4.10;;;;;;;15.51;58.96;102150.66;10627487;27;20051;-59
2021/06/14 05:10:28;;;;;;;11.13;5.30;;;;;;;15.38;59.62;102144.34;10627901;27;20050;-59
2021/06/14 05:15:31;;;;;;;8.05;3.65;;;;;;;15.70;56.78;102139.03;10627004;27;20039;-59
2021/06/14 05:20:34;;;;;;;8.02;4.30;;;;;;;15.68;58.22;102141.75;10626899;27;20364;-59
2021/06/14 05:25:37;;;;;;;9.27;4.85;;;;;;;15.71;57.61;102138.13;10626840;27;20074;-59
2021/06/14 05:30:39;;;;;;;11.82;4.75;;;;;;;15.78;58.46;102150.03;10626956;27;20055;-59
2021/06/14 05:35:41;;;;;;;8.27;4.18;;;;;;;15.61;62.26;102164.19;10625448;27;20383;-59
2021/06/14 05:40:44;;;;;;;7.45;4.43;;;;;;;15.81;60.46;102165.72;10626325;27;20046;-59
2021/06/14 05:45:46;;;;;;;7.90;4.28;;;;;;;15.48;63.88;102166.66;10626481;27;20042;-59
2021/06/14 05:50:49;;;;;;;7.22;4.25;;;;;;;15.84;63.45;102172.63;10625739;27;20042;-59
2021/06/14 05:55:51;;;;;;;7.72;4.65;;;;;;;16.05;63.33;102160.78;10607078;27;20039;-60
2021/06/14 06:00:53;;;;;;;9.10;4.88;;;;;;;15.97;60.67;102166.53;10625443;27;20383;-59
2021/06/14 06:05:56;;;;;;;10.27;4.85;;;;;;;16.79;56.86;102150.19;10625084;27;20047;-59
2021/06/14 06:10:58;;;;;;;10.63;5.53;;;;;;;16.92;55.59;102131.81;10625668;27;20039;-59
2021/06/14 06:16:00;;;;;;;7.40;4.50;;;;;;;17.02;55.91;102127.63;10624871;27;20043;-59
2021/06/14 06:21:03;;;;;;;7.13;4.97;;;;;;;17.11;56.12;102123.53;10625391;27;20085;-60
2021/06/14 06:26:06;;;;;;;8.15;4.80;;;;;;;17.27;55.85;102111.00;10624847;27;20043;-59
2021/06/14 06:31:08;;;;;;;10.07;6.03;;;;;;;17.46;54.80;102108.00;10624446;27;20047;-58
2021/06/14 06:36:12;;;;;;;8.85;5.30;;;;;;;17.71;55.20;102096.63;10624287;27;20122;-59
2021/06/14 06:41:14;;;;;;;13.88;6.13;;;;;;;17.69;55.00;102100.34;10624554;28;20039;-60
2021/06/14 06:46:16;;;;;;;12.82;7.07;;;;;;;17.74;54.69;102107.03;10626099;27;20043;-59
2021/06/14 06:51:19;;;;;;;16.60;5.97;;;;;;;17.98;54.48;102107.19;10633236;27;20122;-59
2021/06/14 06:56:21;;;;;;;8.50;6.50;;;;;;;18.26;53.16;102105.31;10633176;27;20474;-59
2021/06/14 07:01:23;;;;;;;11.65;5.90;;;;;;;18.33;54.50;102101.28;10632665;27;20046;-59
2021/06/14 07:06:26;;;;;;;11.27;6.15;;;;;;;18.62;53.07;102082.44;10632813;27;20047;-60
2021/06/14 07:11:29;;;;;;;11.55;6.25;;;;;;;19.19;52.78;102086.34;10632426;27;20039;-60
2021/06/14 07:16:33;;;;;;;15.65;6.75;;;;;;;19.43;52.33;102082.81;10632070;27;20356;-60
2021/06/14 07:21:36;;;;;;;10.25;6.22;;;;;;;19.77;51.67;102090.94;10632121;27;20122;-60
2021/06/14 07:26:38;;;;;;;12.65;6.50;;;;;;;19.84;51.50;102085.03;10631871;27;20043;-59
2021/06/14 07:31:41;;;;;;;15.02;6.53;;;;;;;20.24;51.17;102078.47;10632213;27;20047;-59
2021/06/14 07:36:43;;;;;;;11.73;6.72;;;;;;;20.15;49.59;102072.03;10631061;27;20393;-59
2021/06/14 07:41:46;;;;;;;14.95;6.38;;;;;;;20.63;51.08;102060.34;10613120;27;20425;-60
2021/06/14 07:46:48;;;;;;;10.10;5.78;;;;;;;20.59;50.69;102046.41;10630522;27;20467;-59
2021/06/14 07:51:50;;;;;;;11.60;6.72;;;;;;;20.87;47.98;102041.53;10630435;27;20095;-59
2021/06/14 07:56:53;;;;;;;16.00;6.28;;;;;;;21.24;51.25;102032.31;10630699;27;20043;-58
2021/06/14 08:01:55;;;;;;;13.75;6.82;;;;;;;21.42;47.11;102024.63;10611783;27;20046;-57
2021/06/14 08:06:58;;;;;;;12.52;5.85;;;;;;;21.95;47.44;102011.19;10630657;27;20062;-58
2021/06/14 08:12:01;;;;;;;11.68;6.05;;;;;;;21.94;45.56;102012.19;10630053;27;20047;-58
2021/06/14 08:17:04;;;;;;;8.35;5.22;;;;;;;22.38;45.03;102009.31;10629629;27;20118;-58
2021/06/14 08:22:31;;;;;;;10.68;5.20;;;;;;;22.75;43.46;102006.00;10629449;27;20532;-58
2021/06/14 08:27:39;;;;;;;12.35;5.25;;;;;;;23.57;42.41;102012.75;10629310;27;20046;-59
2021/06/14 08:32:41;;;;;;;9.15;4.97;;;;;;;23.63;41.47;102008.66;10629314;27;20074;-57
2021/06/14 08:37:45;;;;;;;12.32;6.13;;;;;;;24.43;39.85;102004.53;10629000;27;20035;-56
2021/06/14 08:42:48;;;;;;;13.13;4.75;;;;;;;24.45;42.65;102005.22;10628499;27;20412;-56
2021/06/14 08:47:51;;;;;;;8.13;4.65;;;;;;;24.60;41.33;101997.56;10627592;27;20544;-57
2021/06/14 08:52:54;;;;;;;13.40;4.57;;;;;;;25.03;37.92;102003.13;10627396;27;20351;-57
2021/06/14 08:57:56;;;;;;;9.95;4.43;;;;;;;25.18;35.74;101995.41;10628219;27;20058;-57
2021/06/14 09:02:59;;;;;;;10.82;5.10;;;;;;;25.63;35.01;101994.41;10627750;27;20046;-53
2021/06/14 09:08:06;;;;;;;13.90;4.97;;;;;;;25.82;34.75;101982.59;10609354;27;20118;-56
2021/06/14 09:13:15;;;;;;;14.85;5.82;;;;;;;25.47;36.75;101984.44;10626252;27;20050;-56
2021/06/14 09:18:27;;;;;;;12.50;6.22;;;;;;;25.57;36.57;101982.47;10609278;27;20050;-56
2021/06/14 09:23:51;;;;;;;12.93;6.22;;;;;;;26.20;35.65;101982.31;10609516;27;20047;-58
2021/06/14 09:29:02;;;;;;;12.57;5.90;;;;;;;26.06;33.67;101976.56;10608431;27;20057;-55
2021/06/14 09:34:05;;;;;;;7.68;4.78;;;;;;;27.69;32.42;101965.22;10626851;27;20081;-57
2021/06/14 09:39:18;;;;;;;11.15;5.00;;;;;;;27.64;32.40;101962.22;10626439;27;20035;-56
2021/06/14 09:44:31;;;;;;;11.40;5.55;;;;;;;27.85;31.77;101961.66;10608294;27;20130;-57
2021/06/14 09:49:35;;;;;;;12.25;5.70;;;;;;;27.95;31.87;101965.00;10626323;27;20043;-57
2021/06/14 09:54:37;;;;;;;36.60;6.50;;;;;;;28.17;30.67;101969.59;10625371;27;20478;-57
2021/06/14 09:59:40;;;;;;;8.85;5.40;;;;;;;28.08;30.41;101973.38;10626105;27;20039;-58
2021/06/14 10:04:53;;;;;;;14.93;5.20;;;;;;;28.09;30.02;101963.44;10625682;27;20079;-59
2021/06/14 10:09:55;;;;;;;9.55;5.00;;;;;;;29.21;30.11;101955.75;10625680;27;20039;-57
2021/06/14 10:14:58;;;;;;;10.10;4.78;;;;;;;28.61;31.51;101960.09;10606972;27;20061;-57
2021/06/14 10:20:22;;;;;;;11.48;4.47;;;;;;;29.19;26.34;101957.81;10625066;27;20043;-58
2021/06/14 10:25:26;;;;;;;6.90;3.45;;;;;;;29.76;29.01;101959.03;10607482;27;20047;-57
2021/06/14 10:30:29;;;;;;;8.25;3.97;;;;;;;29.72;27.74;101954.19;10624863;27;20058;-58
2021/06/14 10:35:31;;;;;;;6.25;3.92;;;;;;;30.02;27.43;101944.22;10606696;27;20494;-57
2021/06/14 10:40:35;;;;;;;10.85;5.07;;;;;;;29.67;28.92;101938.56;10624382;28;20039;-57
2021/06/14 10:45:38;;;;;;;8.55;4.20;;;;;;;30.96;26.76;101927.13;10606443;27;20050;-59
2021/06/14 10:50:41;;;;;;;11.25;4.70;;;;;;;30.78;28.69;101935.66;10624320;28;20043;-61
2021/06/14 10:55:50;;;;;;;11.05;4.72;;;;;;;30.42;25.08;101920.38;10623877;28;20116;-60
2021/06/14 11:01:27;;;;;;;5.63;3.88;;;;;;;31.26;28.19;101919.63;10624368;28;20035;-60
2021/06/14 11:06:31;;;;;;;5.70;3.70;;;;;;;31.34;25.91;101923.19;10625217;28;20077;-63
2021/06/14 11:11:50;;;;;;;13.35;4.30;;;;;;;30.78;27.52;101903.22;10624043;27;20074;-61
2021/06/14 11:16:53;;;;;;;7.38;3.38;;;;;;;31.49;26.73;101900.41;10623614;28;20039;-63
2021/06/14 11:21:55;;;;;;;7.72;3.88;;;;;;;31.01;27.80;101903.03;10623710;28;20043;-62
2021/06/14 11:26:58;;;;;;;6.90;4.00;;;;;;;33.56;25.20;101904.38;10624051;28;20050;-62
2021/06/14 11:32:02;;;;;;;9.23;3.42;;;;;;;32.49;24.53;101890.94;10623732;27;20065;-61
2021/06/14 11:37:05;;;;;;;8.35;3.72;;;;;;;32.51;26.06;101884.25;10612653;27;20497;-60
2021/06/14 11:42:11;;;;;;;10.25;3.00;;;;;;;32.28;26.81;101879.25;10631574;27;20039;-62
2021/06/14 11:47:39;;;;;;;7.78;3.58;;;;;;;33.65;26.90;101876.75;10630900;27;20118;-61
2021/06/14 11:52:41;;;;;;;6.60;3.33;;;;;;;32.55;27.11;101866.56;10631218;27;20081;-61
2021/06/14 11:57:44;;;;;;;7.85;3.53;;;;;;;34.05;24.50;101873.84;10630419;27;20042;-61
2021/06/14 12:02:46;;;;;;;5.95;3.65;;;;;;;33.25;24.62;101870.66;10630188;27;20486;-62
2021/06/14 12:07:49;;;;;;;4.85;3.10;;;;;;;32.22;27.33;101866.53;10630011;27;20097;-61
2021/06/14 12:13:09;;;;;;;5.68;2.70;;;;;;;32.57;24.99;101866.34;10630306;27;20126;-62
2021/06/14 12:18:13;;;;;;;6.95;2.40;;;;;;;33.81;24.43;101869.19;10611660;27;20483;-62
2021/06/14 12:23:17;;;;;;;5.85;2.15;;;;;;;34.08;21.86;101871.75;10611936;27;20138;-60
2021/06/14 12:28:21;;;;;;;9.88;2.75;;;;;;;34.49;22.73;101848.69;10629560;27;20070;-62
2021/06/14 12:33:36;;;;;;;4.43;2.47;;;;;;;34.55;24.35;101845.06;10629407;27;20054;-61
2021/06/14 12:38:47;;;;;;;7.90;2.80;;;;;;;32.88;23.25;101832.34;10628930;27;20466;-63
2021/06/14 12:43:50;;;;;;;4.25;2.55;;;;;;;34.13;23.78;101823.88;10610813;27;20058;-61
2021/06/14 12:48:56;;;;;;;4.47;2.30;;;;;;;34.62;22.93;101815.94;10628388;27;20501;-62
2021/06/14 12:54:02;;;;;;;6.97;2.40;;;;;;;34.05;22.96;101819.53;10628053;27;20096;-62
2021/06/14 12:59:05;;;;;;;3.67;2.15;;;;;;;34.95;24.12;101812.91;10610386;27;20534;-62
2021/06/14 13:04:07;;;;;;;3.28;2.08;;;;;;;33.04;22.20;101810.19;10609540;27;20051;-62
2021/06/14 13:09:10;;;;;;;6.88;2.47;;;;;;;34.68;24.19;101814.19;10627520;27;20071;-60
2021/06/14 13:14:24;;;;;;;5.72;2.83;;;;;;;35.09;21.51;101804.59;10627215;27;20395;-60
2021/06/14 13:19:28;;;;;;;5.43;3.10;;;;;;;33.46;23.37;101807.13;10609427;27;20051;-62
2021/06/14 13:24:37;;;;;;;6.15;2.63;;;;;;;33.85;23.93;101806.06;10626674;27;20043;-61
2021/06/14 13:29:41;;;;;;;;;;;;;;;35.03;23.25;101794.59;10609420;27;20046;-61
2021/06/14 13:35:00;;;;;;;5.28;2.58;;;;;;;34.35;26.12;101796.34;10608451;27;19922;-61
2021/06/14 13:40:29;;;;;;;4.65;2.85;;;;;;;34.83;24.62;101792.09;10626365;27;20054;-61
2021/06/14 13:45:36;;;;;;;4.07;2.72;;;;;;;34.74;28.05;101797.03;10622694;27;20428;-63
2021/06/14 13:50:46;;;;;;;13.18;4.10;;;;;;;34.14;23.91;101786.66;10626363;27;20047;-61
2021/06/14 13:56:03;;;;;;;9.93;3.08;;;;;;;34.33;23.51;101791.13;10607048;27;20039;-61
2021/06/14 14:01:15;;;;;;;5.68;2.55;;;;;;;33.60;22.88;101788.88;10625568;27;20355;-60
2021/06/14 14:06:18;;;;;;;13.65;3.00;;;;;;;34.39;24.52;101773.06;10607476;27;20086;-61
2021/06/14 14:11:21;;;;;;;4.93;2.90;;;;;;;35.31;23.02;101773.13;10607099;27;20054;-61
2021/06/14 14:16:23;;;;;;;8.15;3.20;;;;;;;32.48;24.65;101770.00;10625141;27;20048;-61
2021/06/14 14:21:25;;;;;;;5.05;3.08;;;;;;;35.02;23.02;101763.00;10624869;27;20039;-61
2021/06/14 14:26:28;;;;;;;5.13;3.20;;;;;;;34.97;22.89;101763.72;10624455;27;20483;-61
2021/06/14 14:31:36;;;;;;;7.78;2.35;;;;;;;34.90;23.76;101757.50;10624613;27;20367;-61
2021/06/14 14:36:45;;;;;;;8.38;2.85;;;;;;;35.04;21.56;101755.47;10624911;27;20112;-60
2021/06/14 14:41:49;;;;;;;3.87;2.60;;;;;;;34.09;22.55;101748.44;10624853;28;20043;-62
2021/06/14 14:46:52;;;;;;;10.68;2.95;;;;;;;32.38;22.98;101751.47;10606570;28;20047;-62
2021/06/14 14:51:56;;;;;;;7.57;2.50;;;;;;;32.71;25.22;101750.63;10606252;28;20074;-62
2021/06/14 14:56:59;;;;;;;4.90;2.30;;;;;;;31.77;22.95;101744.38;10605838;28;20056;-62
2021/06/14 15:02:16;;;;;;;5.60;1.95;;;;;;;33.99;21.20;101738.91;10624052;27;20498;-61
2021/06/14 15:07:19;;;;;;;2.90;2.05;;;;;;;34.40;26.97;101734.81;10625422;27;20502;-61
2021/06/14 15:12:21;;;;;;;6.32;2.50;;;;;;;34.11;22.46;101733.56;10614610;27;20039;-62
2021/06/14 15:17:24;;;;;;;8.35;2.00;;;;;;;34.34;21.97;101741.13;10632003;27;20071;-62
2021/06/14 15:22:26;;;;;;;5.45;2.30;;;;;;;33.93;22.37;101720.78;10632678;27;20126;-61
2021/06/14 15:27:28;;;;;;;4.63;2.75;;;;;;;32.45;23.50;101717.09;10632044;27;20043;-63
2021/06/14 15:32:49;;;;;;;8.48;2.42;;;;;;;32.04;24.41;101712.72;10631882;27;20425;-61
2021/06/14 15:37:53;;;;;;;7.05;3.40;;;;;;;32.24;24.25;101718.16;10631460;27;20047;-61
2021/06/14 15:42:57;;;;;;;6.93;2.95;;;;;;;33.02;23.89;101714.63;10631261;27;20047;-62
2021/06/14 15:48:03;;;;;;;5.68;3.00;;;;;;;32.39;24.69;101704.38;10612626;27;20393;-61
2021/06/14 15:53:07;;;;;;;5.88;2.83;;;;;;;31.51;23.96;101702.69;10630695;27;20043;-61
2021/06/14 15:58:10;;;;;;;8.73;3.20;;;;;;;32.38;25.13;101699.97;10612538;27;20051;-61
2021/06/14 16:03:12;;;;;;;6.88;3.28;;;;;;;32.26;25.36;101701.69;10630311;27;20364;-61
2021/06/14 16:08:26;;;;;;;7.53;3.67;;;;;;;31.61;24.81;101697.72;10630515;27;20043;-59
2021/06/14 16:13:29;;;;;;;14.93;4.15;;;;;;;31.66;25.91;101699.81;10629593;27;20050;-60
2021/06/14 16:18:31;;;;;;;7.35;3.47;;;;;;;32.01;25.24;101696.88;10628809;27;20039;-61
2021/06/14 16:23:34;;;;;;;9.32;3.28;;;;;;;31.72;25.29;101695.44;10629855;27;20047;-60
2021/06/14 16:28:37;;;;;;;7.38;3.00;;;;;;;31.31;25.23;101699.91;10611093;27;20054;-60
2021/06/14 16:33:39;;;;;;;4.97;3.00;;;;;;;31.08;25.45;101687.56;10610844;27;20051;-61
2021/06/14 16:38:42;;;;;;;7.00;2.88;;;;;;;31.07;25.20;101690.50;10629044;27;20050;-61
2021/06/14 16:43:44;;;;;;;4.53;2.33;;;;;;;31.14;23.75;101691.34;10610374;27;20506;-61
2021/06/14 16:49:06;;;;;;;4.82;2.78;;;;;;;31.21;24.83;101700.28;10628698;27;20063;-60
2021/06/14 16:54:14;;;;;;;3.90;2.20;;;;;;;30.46;26.33;101696.59;10628708;27;20050;-62
2021/06/14 16:59:18;;;;;;;5.65;2.28;;;;;;;30.70;24.44;101693.41;10628316;27;20049;-59
2021/06/14 17:04:20;;;;;;;3.92;2.08;;;;;;;30.46;24.12;101696.59;10628440;27;20051;-60
2021/06/14 17:09:23;;;;;;;3.15;2.00;;;;;;;29.41;25.16;101689.03;10627656;27;20364;-61
2021/06/14 17:14:25;;;;;;;2.42;1.55;;;;;;;29.97;24.79;101688.31;10627176;27;20039;-61
2021/06/14 17:19:27;;;;;;;6.28;2.97;;;;;;;29.13;27.76;101680.81;10627178;27;20471;-60
2021/06/14 17:24:30;;;;;;;2.97;2.30;;;;;;;29.13;28.92;101691.59;10626893;27;20399;-62
2021/06/14 17:29:32;;;;;;;5.53;3.00;;;;;;;29.02;29.77;101692.91;10626834;27;20035;-59
2021/06/14 17:34:35;;;;;;;5.63;2.72;;;;;;;29.09;31.14;101695.69;10626017;27;20047;-60
2021/06/14 17:39:37;;;;;;;7.82;3.60;;;;;;;28.37;32.37;101686.41;10608375;27;20046;-62
2021/06/14 17:44:40;;;;;;;12.07;3.22;;;;;;;28.19;33.08;101689.44;10626020;27;20478;-60
2021/06/14 17:49:42;;;;;;;9.80;3.88;;;;;;;28.11;32.20;101690.38;10607985;27;20053;-61
2021/06/14 17:54:45;;;;;;;6.00;2.78;;;;;;;28.20;33.03;101685.75;10625683;27;20046;-60
2021/06/14 17:59:47;;;;;;;8.07;3.53;;;;;;;27.82;34.03;101684.88;10626012;27;20050;-61
2021/06/14 18:04:49;;;;;;;8.10;4.57;;;;;;;27.23;35.17;101681.72;10625563;27;20047;-60
2021/06/14 18:09:51;;;;;;;6.55;3.40;;;;;;;27.24;34.90;101679.88;10625362;27;20043;-60
2021/06/14 18:14:54;;;;;;;10.48;4.47;;;;;;;26.84;35.98;101682.56;10625473;27;20046;-62
2021/06/14 18:19:56;;;;;;;6.82;3.40;;;;;;;26.47;36.39;101688.53;10624725;27;20360;-60
2021/06/14 18:24:58;;;;;;;5.60;3.38;;;;;;;26.52;36.95;101692.38;10624758;27;20398;-60
2021/06/14 18:30:14;;;;;;;13.50;3.97;;;;;;;26.20;37.83;101689.75;10625501;27;20402;-60
2021/06/14 18:35:19;;;;;;;11.27;3.65;;;;;;;25.85;37.45;101700.63;10624238;27;20039;-62
2021/06/14 18:40:21;;;;;;;10.82;3.65;;;;;;;25.57;38.55;101697.41;10625196;27;20053;-61
2021/06/14 18:45:24;;;;;;;7.32;3.17;;;;;;;25.60;38.36;101710.50;10624179;27;20046;-60
2021/06/14 18:50:26;;;;;;;8.52;2.95;;;;;;;25.32;38.15;101712.63;10624357;28;20043;-62
2021/06/14 18:55:28;;;;;;;4.78;3.17;;;;;;;25.11;39.07;101715.69;10606153;28;20043;-61
2021/06/14 19:00:31;;;;;;;6.60;3.03;;;;;;;24.88;39.83;101726.13;10606097;28;20050;-60
2021/06/14 19:05:34;;;;;;;8.93;3.38;;;;;;;24.55;39.62;101723.28;10605859;28;20550;-61
2021/06/14 19:10:37;;;;;;;10.57;3.67;;;;;;;24.32;39.58;101736.31;10623974;27;20043;-61
2021/06/14 19:15:39;;;;;;;6.43;3.00;;;;;;;24.32;39.71;101737.13;10623806;28;20043;-59
2021/06/14 19:20:42;;;;;;;4.43;2.83;;;;;;;23.88;41.23;101731.75;10623635;27;20383;-63
2021/06/14 19:25:44;;;;;;;5.22;3.20;;;;;;;23.63;41.19;101747.50;10623665;27;20054;-59
2021/06/14 19:30:47;;;;;;;16.75;3.97;;;;;;;23.63;42.53;101760.03;10588643;27;20061;-60
2021/06/14 19:35:50;;;;;;;11.80;4.18;;;;;;;23.21;46.46;101761.38;10623514;27;20070;-59
2021/06/14 19:40:56;;;;;;;11.30;5.97;;;;;;;22.87;48.84;101767.25;10605944;27;20051;-60
2021/06/14 19:45:58;;;;;;;12.63;6.15;;;;;;;22.68;50.72;101781.50;10604904;28;20043;-61
2021/06/14 19:51:02;;;;;;;8.18;5.68;;;;;;;22.60;51.07;101778.69;10605554;27;20067;-60
2021/06/14 19:56:04;;;;;;;13.35;6.30;;;;;;;22.33;52.51;101784.78;10627276;27;20130;-61
2021/06/14 20:01:06;;;;;;;12.85;5.95;;;;;;;22.26;52.47;101795.13;10630537;27;20046;-59
2021/06/14 20:06:11;;;;;;;10.50;7.20;;;;;;;22.01;54.17;101802.69;10630834;27;20047;-60
2021/06/14 20:11:13;;;;;;;8.88;6.07;;;;;;;21.88;54.93;101802.94;10630043;27;20043;-60
2021/06/14 20:16:15;;;;;;;11.30;6.65;;;;;;;21.84;54.24;101808.72;10630230;27;20047;-62
2021/06/14 20:21:18;;;;;;;9.77;5.63;;;;;;;21.75;54.67;101810.34;10629630;27;20498;-61
2021/06/14 20:26:22;;;;;;;10.95;6.97;;;;;;;21.33;56.67;101808.66;10629460;27;20060;-61
2021/06/14 20:31:25;;;;;;;11.88;6.70;;;;;;;21.37;56.16;101808.38;10629172;27;20043;-60
2021/06/14 20:36:27;;;;;;;11.05;6.68;;;;;;;21.33;56.39;101815.78;10628870;27;20360;-62
2021/06/14 20:41:30;;;;;;;10.90;7.32;;;;;;;21.19;56.80;101817.00;10629121;27;20130;-61
2021/06/14 20:46:33;;;;;;;10.32;6.75;;;;;;;20.86;58.01;101810.91;10610480;27;20057;-62
2021/06/14 20:51:36;;;;;;;11.88;6.88;;;;;;;20.51;58.87;101813.88;10628276;27;20043;-61
2021/06/14 20:56:38;;;;;;;13.13;6.43;;;;;;;20.32;59.41;101819.88;10609875;27;20494;-61
2021/06/14 21:01:41;;;;;;;9.15;6.18;;;;;;;20.34;59.45;101818.81;10627999;27;20504;-59
2021/06/14 21:06:43;;;;;;;8.52;6.05;;;;;;;20.07;59.83;101829.88;10628005;27;20051;-60
2021/06/14 21:11:46;;;;;;;12.48;6.15;;;;;;;19.66;61.67;101824.25;10628193;27;20051;-60
2021/06/14 21:16:48;;;;;;;10.18;5.85;;;;;;;19.72;61.57;101832.69;10627184;27;20043;-59
2021/06/14 21:21:50;;;;;;;11.68;7.00;;;;;;;19.42;62.67;101832.34;10627105;27;20485;-60
2021/06/14 21:26:53;;;;;;;12.45;6.95;;;;;;;19.28;62.62;101838.75;10627569;27;20066;-60
2021/06/14 21:31:56;;;;;;;7.85;6.15;;;;;;;19.38;61.77;101845.97;10626690;27;20039;-61
2021/06/14 21:36:58;;;;;;;12.82;6.88;;;;;;;19.28;62.91;101843.19;10608224;27;20463;-60
2021/06/14 21:42:01;;;;;;;11.75;6.00;;;;;;;18.99;64.06;101850.75;10608919;27;20061;-60
2021/06/14 21:47:03;;;;;;;9.43;6.30;;;;;;;19.23;63.60;101854.19;10625984;27;20120;-60
2021/06/14 21:52:06;;;;;;;13.23;9.80;;;;;;;19.30;63.90;101868.69;10608476;27;20095;-60
2021/06/14 21:57:09;;;;;;;13.57;11.50;;;;;;;19.31;64.40;101865.03;10625570;27;20043;-60
2021/06/14 22:02:11;;;;;;;16.20;12.73;;;;;;;19.14;66.03;101857.53;10625784;27;20043;-61
2021/06/14 22:07:13;;;;;;;16.77;12.07;;;;;;;19.36;65.49;101862.03;10626084;27;20091;-59
2021/06/14 22:12:16;;;;;;;13.65;10.25;;;;;;;19.06;66.65;101859.94;10607798;27;20055;-60
2021/06/14 22:17:19;;;;;;;17.25;12.73;;;;;;;18.88;67.56;101859.56;10624442;27;20043;-60
2021/06/14 22:22:21;;;;;;;18.27;12.70;;;;;;;18.63;68.34;101858.72;10625331;27;20046;-61
2021/06/14 22:27:24;;;;;;;16.27;11.85;;;;;;;18.74;68.12;101863.19;10624690;27;20483;-60
2021/06/14 22:32:26;;;;;;;16.83;11.70;;;;;;;18.77;68.03;101867.44;10606389;27;20043;-60
2021/06/14 22:37:28;;;;;;;17.00;11.95;;;;;;;18.72;69.23;101859.81;10606300;27;20391;-59
2021/06/14 22:42:31;;;;;;;15.77;12.18;;;;;;;18.60;69.22;101864.25;10624424;27;20128;-58
2021/06/14 22:47:33;;;;;;;16.83;10.80;;;;;;;18.59;68.53;101867.00;10624399;28;20054;-60
2021/06/14 22:52:36;;;;;;;14.55;11.18;;;;;;;18.48;68.63;101867.81;10624464;28;20047;-60
2021/06/14 22:57:39;;;;;;;14.63;10.50;;;;;;;18.44;68.15;101871.63;10624009;28;20051;-61
2021/06/14 23:02:41;;;;;;;15.70;10.43;;;;;;;18.34;69.70;101864.38;10624166;27;20039;-60
2021/06/14 23:07:44;;;;;;;14.10;9.73;;;;;;;18.27;70.36;101871.06;10624080;28;20047;-60
2021/06/14 23:12:46;;;;;;;23.65;11.02;;;;;;;18.26;70.59;101869.38;10624083;27;20050;-59